Time;durP1;ratioP1;P1;durP2;ratioP2;P2;SDS_P1;SDS_P2;PMS_P1;PMS_P2;Temp;Humidity;BMP_temperature;BMP_pressure;BME280_temperature;BME280_humidity;BME280_pressure;Samples;Min_cycle;Max_cycle;Signal;HPM_P1;HPM_P2
2021/12/10 00:02:10;;;;;;;12.45;4.20;;;;;;;;;;4998236;28;20027;-76
2021/12/10 00:04:39;;;;;;;10.25;3.80;;;;;;;;;;4997867;28;20023;-76
2021/12/10 00:07:08;;;;;;;11.27;4.30;;;;;;;;;;4997925;28;20046;-75
2021/12/10 00:09:42;;;;;;;11.07;3.70;;;;;;;;;;5005083;28;20030;-74
2021/12/10 00:12:19;;;;;;;11.32;3.97;;;;;;;;;;5017345;28;20058;-76
2021/12/10 00:14:45;;;;;;;10.77;5.20;;;;;;;;;;5015482;28;20031;-76
2021/12/10 00:17:13;;;;;;;9.75;3.83;;;;;;;;;;5015976;28;20496;-76
2021/12/10 00:19:48;;;;;;;12.30;3.83;;;;;;;;;;5007039;28;20105;-74
2021/12/10 00:22:17;;;;;;;11.52;4.78;;;;;;;;;;4986529;28;20034;-75
2021/12/10 00:24:44;;;;;;;10.88;3.75;;;;;;;;;;5006390;28;20025;-75
2021/12/10 00:27:12;;;;;;;7.20;3.25;;;;;;;;;;5006068;28;20073;-76
2021/12/10 00:29:41;;;;;;;10.80;3.08;;;;;;;;;;4998516;28;20027;-76
2021/12/10 00:32:29;;;;;;;11.35;4.03;;;;;;;;;;5000415;28;20082;-75
2021/12/10 00:34:56;;;;;;;9.40;2.83;;;;;;;;;;5017022;28;20026;-75
2021/12/10 00:37:23;;;;;;;7.40;2.90;;;;;;;;;;5004548;28;20030;-76
2021/12/10 00:39:52;;;;;;;10.63;3.42;;;;;;;;;;4997337;28;20027;-75
2021/12/10 00:42:20;;;;;;;9.68;3.20;;;;;;;;;;4997480;28;20026;-74
2021/12/10 00:44:46;;;;;;;13.70;2.88;;;;;;;;;;5011766;28;20105;-76
2021/12/10 00:47:13;;;;;;;8.25;3.15;;;;;;;;;;4998612;28;20030;-76
2021/12/10 00:49:39;;;;;;;12.43;3.17;;;;;;;;;;4997034;28;20050;-74
2021/12/10 00:52:07;;;;;;;8.80;3.00;;;;;;;;;;5010971;28;20038;-76
2021/12/10 00:54:33;;;;;;;9.98;4.10;;;;;;;;;;5003670;28;20033;-74
2021/12/10 00:56:59;;;;;;;9.93;3.05;;;;;;;;;;5017506;28;20037;-75
2021/12/10 00:59:25;;;;;;;7.78;3.00;;;;;;;;;;5016476;28;20409;-75
2021/12/10 01:01:52;;;;;;;5.88;2.83;;;;;;;;;;5016470;28;20084;-77
2021/12/10 01:04:25;;;;;;;8.10;3.53;;;;;;;;;;4998898;28;20050;-74
2021/12/10 01:06:52;;;;;;;13.43;3.25;;;;;;;;;;4996305;28;20045;-76
2021/12/10 01:09:24;;;;;;;9.85;3.22;;;;;;;;;;4997052;28;20109;-74
2021/12/10 01:11:51;;;;;;;5.00;2.75;;;;;;;;;;5006227;28;20036;-75
2021/12/10 01:14:36;;;;;;;9.57;3.35;;;;;;;;;;5005504;28;20045;-77
2021/12/10 01:25:34;;;;;;;7.88;3.17;;;;;;;;;;5003890;28;20444;-76
2021/12/10 01:28:00;;;;;;;7.75;4.25;;;;;;;;;;4997661;28;20509;-76
2021/12/10 01:30:28;;;;;;;10.85;2.95;;;;;;;;;;4995803;28;20042;-75
2021/12/10 01:32:59;;;;;;;7.25;3.15;;;;;;;;;;5011283;28;20392;-76
2021/12/10 01:35:34;;;;;;;7.45;2.47;;;;;;;;;;4996272;28;20633;-76
2021/12/10 01:38:01;;;;;;;5.53;3.00;;;;;;;;;;4996295;28;20377;-77
2021/12/10 01:40:28;;;;;;;6.22;2.53;;;;;;;;;;5007253;28;20037;-77
2021/12/10 01:43:02;;;;;;;6.65;2.53;;;;;;;;;;5015979;28;20473;-76
2021/12/10 01:45:31;;;;;;;7.45;3.22;;;;;;;;;;4976634;28;20054;-76
2021/12/10 01:48:03;;;;;;;11.60;3.50;;;;;;;;;;4992077;28;20015;-76
2021/12/10 01:50:29;;;;;;;5.15;2.55;;;;;;;;;;5007376;28;20432;-75
2021/12/10 01:52:57;;;;;;;6.93;2.30;;;;;;;;;;5015912;28;20021;-74
2021/12/10 01:55:24;;;;;;;9.45;2.65;;;;;;;;;;5014094;28;20037;-78
2021/12/10 01:57:51;;;;;;;5.53;2.35;;;;;;;;;;5008559;28;20036;-76
2021/12/10 02:00:19;;;;;;;7.68;2.35;;;;;;;;;;5006207;28;20038;-73
2021/12/10 02:02:46;;;;;;;7.22;2.53;;;;;;;;;;5011619;28;20026;-76
2021/12/10 02:05:13;;;;;;;5.72;2.30;;;;;;;;;;5011234;28;20022;-76
2021/12/10 02:07:39;;;;;;;7.85;2.35;;;;;;;;;;4996796;28;20018;-75
2021/12/10 02:10:06;;;;;;;8.23;2.60;;;;;;;;;;5004195;28;20030;-74
2021/12/10 02:12:32;;;;;;;4.32;2.10;;;;;;;;;;5002756;28;20034;-75
2021/12/10 02:15:01;;;;;;;5.15;2.38;;;;;;;;;;4996890;28;20030;-75
2021/12/10 02:17:30;;;;;;;3.55;1.88;;;;;;;;;;5011617;28;20050;-75
2021/12/10 02:19:57;;;;;;;3.83;2.10;;;;;;;;;;5011408;28;20499;-75
2021/12/10 02:22:24;;;;;;;3.53;2.00;;;;;;;;;;5018268;28;20022;-77
2021/12/10 02:24:50;;;;;;;2.17;1.88;;;;;;;;;;5016855;28;20383;-76
2021/12/10 02:27:16;;;;;;;6.32;2.75;;;;;;;;;;5019206;28;20026;-76
2021/12/10 02:29:42;;;;;;;8.48;2.03;;;;;;;;;;5018013;28;20036;-75
2021/12/10 02:32:10;;;;;;;6.18;2.00;;;;;;;;;;5009596;28;20068;-75
2021/12/10 02:34:36;;;;;;;6.57;1.83;;;;;;;;;;5007027;28;20061;-76
2021/12/10 02:37:03;;;;;;;3.92;2.10;;;;;;;;;;4996530;28;20422;-74
2021/12/10 02:39:29;;;;;;;6.30;2.55;;;;;;;;;;4995446;28;20075;-75
2021/12/10 02:41:55;;;;;;;5.10;2.25;;;;;;;;;;5000696;28;20166;-75
2021/12/10 02:44:23;;;;;;;2.45;1.70;;;;;;;;;;5018844;28;20026;-74
2021/12/10 02:46:50;;;;;;;3.60;2.00;;;;;;;;;;5018784;28;20022;-75
2021/12/10 02:49:17;;;;;;;4.63;2.13;;;;;;;;;;4999773;28;20042;-75
2021/12/10 02:51:44;;;;;;;8.02;2.35;;;;;;;;;;5023148;28;20093;-75
2021/12/10 02:54:11;;;;;;;8.50;2.10;;;;;;;;;;4999523;28;20027;-76
2021/12/10 02:56:37;;;;;;;4.88;2.22;;;;;;;;;;5013267;28;20026;-76
2021/12/10 02:59:04;;;;;;;5.32;2.20;;;;;;;;;;5008917;28;20105;-76
2021/12/10 03:01:35;;;;;;;3.78;1.80;;;;;;;;;;4999031;28;20105;-75
2021/12/10 03:04:01;;;;;;;3.80;2.00;;;;;;;;;;4998883;28;20027;-76
2021/12/10 03:06:29;;;;;;;2.58;1.80;;;;;;;;;;5005666;28;20104;-76
2021/12/10 03:08:56;;;;;;;3.55;2.00;;;;;;;;;;5001126;28;20101;-76
2021/12/10 03:11:27;;;;;;;2.00;1.70;;;;;;;;;;4999051;28;20041;-75
2021/12/10 03:13:53;;;;;;;4.50;1.98;;;;;;;;;;5010609;28;20444;-75
2021/12/10 03:16:20;;;;;;;2.88;1.88;;;;;;;;;;5010903;28;20079;-76
2021/12/10 03:18:46;;;;;;;3.35;2.05;;;;;;;;;;5018689;28;20033;-77
2021/12/10 03:21:12;;;;;;;3.30;1.77;;;;;;;;;;5016653;28;20033;-76
2021/12/10 03:23:42;;;;;;;3.05;1.80;;;;;;;;;;5018473;28;20376;-76
2021/12/10 03:26:10;;;;;;;4.28;2.00;;;;;;;;;;5016304;28;20046;-76
2021/12/10 03:28:36;;;;;;;2.70;1.83;;;;;;;;;;5017961;28;20042;-75
2021/12/10 03:31:02;;;;;;;3.78;1.70;;;;;;;;;;5018133;28;20038;-74
2021/12/10 03:33:29;;;;;;;3.63;1.70;;;;;;;;;;5007944;28;20045;-75
2021/12/10 03:35:55;;;;;;;3.05;1.90;;;;;;;;;;5004062;28;20076;-75
2021/12/10 03:38:23;;;;;;;8.35;2.13;;;;;;;;;;5018355;28;20472;-76
2021/12/10 03:40:49;;;;;;;3.78;1.83;;;;;;;;;;5018108;28;20448;-76
2021/12/10 03:43:16;;;;;;;3.00;1.90;;;;;;;;;;5007726;28;20034;-76
2021/12/10 03:45:44;;;;;;;4.20;1.70;;;;;;;;;;5018244;28;20029;-75
2021/12/10 03:48:12;;;;;;;3.88;1.70;;;;;;;;;;4999534;28;20026;-73
2021/12/10 03:50:42;;;;;;;1.77;1.63;;;;;;;;;;4998165;28;20050;-76
2021/12/10 03:53:08;;;;;;;2.53;1.70;;;;;;;;;;5006953;28;20038;-76
2021/12/10 03:55:35;;;;;;;2.20;1.70;;;;;;;;;;4997995;28;20030;-76
2021/12/10 03:58:01;;;;;;;3.30;1.70;;;;;;;;;;4999371;28;20032;-74
2021/12/10 04:00:30;;;;;;;5.68;2.35;;;;;;;;;;4997985;28;20038;-76
2021/12/10 04:02:57;;;;;;;4.60;1.80;;;;;;;;;;4998138;28;20041;-76
2021/12/10 04:05:23;;;;;;;6.90;1.98;;;;;;;;;;4998199;28;20022;-76
2021/12/10 04:07:49;;;;;;;2.42;1.33;;;;;;;;;;5006210;28;20081;-75
2021/12/10 04:10:18;;;;;;;2.33;1.52;;;;;;;;;;4997760;28;20038;-76
2021/12/10 04:12:44;;;;;;;4.00;2.03;;;;;;;;;;4998251;28;20366;-77
2021/12/10 04:15:10;;;;;;;2.03;1.60;;;;;;;;;;5005983;28;20030;-75
2021/12/10 04:17:38;;;;;;;2.80;1.63;;;;;;;;;;5013635;28;20073;-75
2021/12/10 04:20:05;;;;;;;4.07;1.88;;;;;;;;;;5017781;28;20076;-76
2021/12/10 04:22:32;;;;;;;2.80;1.45;;;;;;;;;;5013734;28;20050;-76
2021/12/10 04:25:02;;;;;;;2.03;1.30;;;;;;;;;;4997528;28;20053;-76
2021/12/10 04:27:28;;;;;;;3.00;2.00;;;;;;;;;;4997420;28;20097;-75
2021/12/10 04:29:57;;;;;;;5.45;2.25;;;;;;;;;;4996309;28;20030;-77
2021/12/10 04:32:24;;;;;;;5.28;1.70;;;;;;;;;;5000143;28;20029;-76
2021/12/10 04:34:51;;;;;;;3.33;1.95;;;;;;;;;;5016490;28;20052;-75
2021/12/10 04:37:17;;;;;;;3.40;1.90;;;;;;;;;;5006700;28;20034;-75
2021/12/10 04:39:48;;;;;;;3.60;2.25;;;;;;;;;;4996864;28;20520;-76
2021/12/10 04:42:18;;;;;;;4.82;2.15;;;;;;;;;;4997065;28;20023;-74
2021/12/10 04:44:45;;;;;;;2.58;1.65;;;;;;;;;;4997074;28;20015;-75
2021/12/10 04:47:11;;;;;;;6.38;1.92;;;;;;;;;;5011148;28;20058;-74
2021/12/10 04:49:37;;;;;;;3.10;1.73;;;;;;;;;;5012768;28;20044;-76
2021/12/10 04:52:04;;;;;;;3.13;1.60;;;;;;;;;;4996911;28;20027;-76
2021/12/10 04:54:31;;;;;;;4.93;2.10;;;;;;;;;;5028390;28;20034;-74
2021/12/10 04:56:58;;;;;;;5.22;1.88;;;;;;;;;;5015732;28;20108;-75
2021/12/10 04:59:25;;;;;;;5.07;1.73;;;;;;;;;;5015884;28;20030;-77
2021/12/10 05:01:54;;;;;;;6.20;2.00;;;;;;;;;;5016740;28;20029;-75
2021/12/10 05:04:21;;;;;;;3.63;1.60;;;;;;;;;;5016243;28;20021;-72
2021/12/10 05:06:47;;;;;;;6.22;1.90;;;;;;;;;;5014532;28;20026;-76
2021/12/10 05:09:13;;;;;;;3.78;1.77;;;;;;;;;;5000958;28;20034;-77
2021/12/10 05:11:40;;;;;;;2.70;1.80;;;;;;;;;;4996901;28;20034;-75
2021/12/10 05:14:06;;;;;;;1.65;1.55;;;;;;;;;;4996610;28;20030;-73
2021/12/10 05:16:34;;;;;;;4.05;2.83;;;;;;;;;;4996475;28;20026;-75
2021/12/10 05:19:01;;;;;;;1.85;1.50;;;;;;;;;;4999080;28;20527;-75
2021/12/10 05:21:32;;;;;;;2.15;1.42;;;;;;;;;;5016455;28;20538;-74
2021/12/10 05:23:59;;;;;;;2.92;1.70;;;;;;;;;;5015576;28;20052;-74
2021/12/10 05:26:25;;;;;;;3.20;1.52;;;;;;;;;;4999002;28;20026;-76
2021/12/10 05:28:51;;;;;;;2.45;1.52;;;;;;;;;;5015355;28;20021;-75
2021/12/10 05:31:17;;;;;;;2.55;1.42;;;;;;;;;;5016003;28;20109;-75
2021/12/10 05:33:43;;;;;;;4.53;1.75;;;;;;;;;;5015831;28;20503;-76
2021/12/10 05:36:10;;;;;;;1.52;1.42;;;;;;;;;;5015344;28;20034;-75
2021/12/10 05:38:36;;;;;;;1.52;1.42;;;;;;;;;;5015192;28;20036;-75
2021/12/10 05:41:05;;;;;;;2.95;1.70;;;;;;;;;;4998841;28;20073;-77
2021/12/10 05:43:32;;;;;;;7.35;1.92;;;;;;;;;;4996458;28;20040;-77
2021/12/10 05:45:58;;;;;;;2.28;1.67;;;;;;;;;;5010827;28;20045;-75
2021/12/10 05:48:24;;;;;;;3.08;1.70;;;;;;;;;;5015587;28;20384;-75
2021/12/10 05:50:51;;;;;;;4.28;2.15;;;;;;;;;;5005654;28;20076;-75
2021/12/10 05:53:17;;;;;;;3.80;1.50;;;;;;;;;;5015304;28;20109;-77
2021/12/10 05:55:44;;;;;;;2.53;1.95;;;;;;;;;;5014558;28;20091;-77
2021/12/10 05:58:10;;;;;;;4.38;1.90;;;;;;;;;;5015471;28;20037;-77
2021/12/10 06:00:42;;;;;;;2.35;1.90;;;;;;;;;;5015502;28;20026;-75
2021/12/10 06:03:08;;;;;;;5.65;1.70;;;;;;;;;;5015578;28;20034;-76
2021/12/10 06:05:34;;;;;;;4.20;1.50;;;;;;;;;;5014959;28;20392;-76
2021/12/10 06:08:01;;;;;;;2.65;2.10;;;;;;;;;;5015413;28;20037;-77
2021/12/10 06:10:28;;;;;;;5.63;1.90;;;;;;;;;;5005546;28;20057;-77
2021/12/10 06:12:55;;;;;;;3.38;1.63;;;;;;;;;;4995789;28;20066;-75
2021/12/10 06:15:23;;;;;;;5.82;1.60;;;;;;;;;;4995901;28;20043;-77
2021/12/10 06:17:49;;;;;;;1.95;1.60;;;;;;;;;;5003952;28;20030;-77
2021/12/10 06:20:17;;;;;;;3.97;1.90;;;;;;;;;;4995584;28;20034;-75
2021/12/10 06:22:44;;;;;;;2.53;1.73;;;;;;;;;;5008531;28;20019;-76
2021/12/10 06:25:10;;;;;;;3.28;1.95;;;;;;;;;;5000155;28;20088;-77
2021/12/10 06:27:38;;;;;;;4.57;2.00;;;;;;;;;;4996086;28;20045;-76
2021/12/10 06:30:05;;;;;;;4.47;1.73;;;;;;;;;;4995743;28;20084;-75
2021/12/10 06:32:31;;;;;;;9.18;2.17;;;;;;;;;;4997171;28;20034;-78
2021/12/10 06:34:58;;;;;;;2.72;1.80;;;;;;;;;;5009573;28;20481;-77
2021/12/10 06:37:24;;;;;;;4.50;1.70;;;;;;;;;;5013865;28;20038;-77
2021/12/10 06:39:50;;;;;;;2.85;1.67;;;;;;;;;;5014209;28;20034;-77
2021/12/10 06:42:16;;;;;;;4.22;1.70;;;;;;;;;;5015181;28;20026;-77
2021/12/10 06:44:42;;;;;;;5.50;1.90;;;;;;;;;;5013292;28;20038;-75
2021/12/10 06:47:08;;;;;;;8.48;2.00;;;;;;;;;;5013308;28;20034;-77
2021/12/10 06:49:35;;;;;;;2.13;1.52;;;;;;;;;;5002587;28;20045;-76
2021/12/10 06:52:03;;;;;;;3.72;2.17;;;;;;;;;;5015033;28;20041;-77
2021/12/10 06:54:30;;;;;;;3.60;1.70;;;;;;;;;;5013859;28;20029;-78
2021/12/10 06:56:56;;;;;;;2.60;1.73;;;;;;;;;;5014014;28;20057;-75
2021/12/10 06:59:25;;;;;;;3.38;1.70;;;;;;;;;;4995687;28;20037;-75
2021/12/10 07:01:51;;;;;;;4.60;1.58;;;;;;;;;;4995527;28;20386;-75
2021/12/10 07:04:18;;;;;;;4.80;2.08;;;;;;;;;;5005667;28;20030;-76
2021/12/10 07:06:46;;;;;;;4.25;1.98;;;;;;;;;;5013988;28;20037;-76
2021/12/10 07:09:17;;;;;;;2.58;1.70;;;;;;;;;;5014610;28;20033;-76
2021/12/10 07:11:45;;;;;;;5.32;1.83;;;;;;;;;;5000972;28;20034;-74
2021/12/10 07:14:11;;;;;;;4.65;3.15;;;;;;;;;;5000826;28;20045;-74
2021/12/10 07:16:37;;;;;;;3.17;1.85;;;;;;;;;;5008401;28;20034;-75
2021/12/10 07:19:04;;;;;;;3.05;2.05;;;;;;;;;;5012215;28;20093;-77
2021/12/10 07:21:31;;;;;;;4.40;2.10;;;;;;;;;;4995457;28;20041;-74
2021/12/10 07:23:58;;;;;;;4.35;1.77;;;;;;;;;;4996208;28;20014;-77
2021/12/10 07:26:24;;;;;;;3.72;1.70;;;;;;;;;;5012263;28;20026;-75
2021/12/10 07:28:50;;;;;;;3.17;2.10;;;;;;;;;;5011444;28;20476;-74
2021/12/10 07:31:16;;;;;;;3.47;1.92;;;;;;;;;;4979268;28;20026;-76
2021/12/10 07:33:42;;;;;;;6.20;1.98;;;;;;;;;;4979434;28;20038;-76
2021/12/10 07:36:09;;;;;;;2.53;1.63;;;;;;;;;;4996670;28;20473;-75
2021/12/10 07:38:35;;;;;;;3.90;1.63;;;;;;;;;;5017909;28;20083;-76
2021/12/10 07:41:02;;;;;;;2.60;1.75;;;;;;;;;;5017433;28;20018;-76
2021/12/10 07:43:28;;;;;;;4.95;2.13;;;;;;;;;;5008500;28;20093;-75
2021/12/10 07:45:54;;;;;;;8.65;2.15;;;;;;;;;;5016833;28;20026;-75
2021/12/10 07:48:22;;;;;;;3.88;2.10;;;;;;;;;;5008113;28;20385;-76
2021/12/10 07:50:53;;;;;;;2.95;2.28;;;;;;;;;;4997340;28;20050;-75
2021/12/10 07:53:23;;;;;;;4.70;2.20;;;;;;;;;;5007657;28;20022;-74
2021/12/10 07:55:49;;;;;;;7.88;2.33;;;;;;;;;;5010894;28;20026;-74
2021/12/10 07:58:16;;;;;;;2.60;1.75;;;;;;;;;;5008308;28;20501;-75
2021/12/10 08:00:43;;;;;;;4.88;2.67;;;;;;;;;;4999286;28;20034;-76
2021/12/10 08:03:09;;;;;;;8.82;3.45;;;;;;;;;;4996979;28;20034;-74
2021/12/10 08:05:36;;;;;;;9.75;2.53;;;;;;;;;;5011430;28;20059;-77
2021/12/10 08:08:03;;;;;;;4.30;2.33;;;;;;;;;;5007458;28;20034;-78
2021/12/10 08:10:29;;;;;;;6.40;3.58;;;;;;;;;;5002963;28;20030;-80
2021/12/10 08:12:56;;;;;;;6.10;2.38;;;;;;;;;;4983263;28;20026;-76
2021/12/10 08:15:22;;;;;;;5.22;2.03;;;;;;;;;;4996551;28;20065;-77
2021/12/10 08:17:48;;;;;;;6.60;1.95;;;;;;;;;;5007576;28;20073;-77
2021/12/10 08:20:19;;;;;;;6.40;2.38;;;;;;;;;;5001602;28;20058;-76
2021/12/10 08:22:45;;;;;;;7.95;2.90;;;;;;;;;;5001440;28;20018;-78
2021/12/10 08:25:11;;;;;;;5.10;2.45;;;;;;;;;;4998462;28;20034;-76
2021/12/10 08:27:38;;;;;;;5.00;2.13;;;;;;;;;;4999357;28;20027;-77
2021/12/10 08:30:10;;;;;;;4.55;2.30;;;;;;;;;;5011520;28;20037;-78
2021/12/10 08:32:36;;;;;;;5.75;2.42;;;;;;;;;;4999849;28;20081;-78
2021/12/10 08:35:03;;;;;;;3.78;2.22;;;;;;;;;;5003757;28;20038;-76
2021/12/10 08:37:30;;;;;;;6.57;2.67;;;;;;;;;;4996908;28;20034;-77
2021/12/10 08:39:56;;;;;;;7.03;2.58;;;;;;;;;;4990150;28;20035;-79
2021/12/10 08:42:22;;;;;;;7.93;2.78;;;;;;;;;;5006031;28;20074;-76
2021/12/10 08:44:48;;;;;;;3.72;2.20;;;;;;;;;;5003720;28;20025;-77
2021/12/10 08:47:15;;;;;;;4.45;2.08;;;;;;;;;;5001270;28;20026;-79
2021/12/10 08:49:41;;;;;;;4.68;2.33;;;;;;;;;;5015821;28;20053;-74
2021/12/10 08:52:08;;;;;;;7.80;3.63;;;;;;;;;;4993900;28;20046;-75
2021/12/10 08:54:35;;;;;;;4.22;2.30;;;;;;;;;;5000985;28;20038;-77
2021/12/10 08:57:01;;;;;;;7.13;2.53;;;;;;;;;;4998787;28;20520;-76
2021/12/10 08:59:28;;;;;;;5.55;2.70;;;;;;;;;;5003636;28;20087;-75
2021/12/10 09:02:00;;;;;;;6.40;3.15;;;;;;;;;;5007268;28;20018;-79
2021/12/10 09:04:27;;;;;;;9.70;2.40;;;;;;;;;;5003555;28;20119;-78
2021/12/10 09:06:55;;;;;;;12.18;4.05;;;;;;;;;;5001144;28;20057;-77
2021/12/10 09:09:22;;;;;;;5.90;2.80;;;;;;;;;;5002945;28;20046;-77
2021/12/10 09:11:50;;;;;;;7.45;2.53;;;;;;;;;;4999769;28;20377;-76
2021/12/10 09:14:17;;;;;;;8.63;2.15;;;;;;;;;;5006371;28;20416;-75
2021/12/10 09:16:44;;;;;;;6.70;3.03;;;;;;;;;;5000442;28;20030;-75
2021/12/10 09:19:13;;;;;;;11.68;2.65;;;;;;;;;;5001510;28;20034;-76
2021/12/10 09:21:41;;;;;;;7.57;3.15;;;;;;;;;;5006182;28;20448;-76
2021/12/10 09:24:08;;;;;;;7.93;3.20;;;;;;;;;;4994609;28;20027;-76
2021/12/10 09:26:36;;;;;;;3.85;2.47;;;;;;;;;;4996836;28;20114;-76
2021/12/10 09:29:04;;;;;;;12.77;3.28;;;;;;;;;;5006320;28;20048;-75
2021/12/10 09:31:30;;;;;;;7.57;3.95;;;;;;;;;;5009767;28;20105;-75
2021/12/10 09:33:57;;;;;;;10.75;3.75;;;;;;;;;;5015857;28;20106;-77
2021/12/10 09:36:25;;;;;;;6.97;3.38;;;;;;;;;;5009787;28;20026;-79
2021/12/10 09:38:51;;;;;;;5.45;2.97;;;;;;;;;;5003028;28;20030;-76
2021/12/10 09:41:18;;;;;;;3.97;2.60;;;;;;;;;;5011411;28;20116;-77
2021/12/10 09:43:44;;;;;;;10.48;3.58;;;;;;;;;;5010081;28;20101;-77
2021/12/10 09:46:12;;;;;;;9.75;2.75;;;;;;;;;;4995630;28;20489;-76
2021/12/10 09:48:38;;;;;;;13.32;4.35;;;;;;;;;;5000571;28;20088;-77
2021/12/10 09:51:10;;;;;;;7.93;3.20;;;;;;;;;;5004907;28;20053;-77
2021/12/10 09:53:37;;;;;;;7.03;2.70;;;;;;;;;;5010561;28;20084;-75
2021/12/10 09:56:03;;;;;;;7.97;2.55;;;;;;;;;;4991006;28;20031;-75
2021/12/10 09:58:30;;;;;;;7.93;2.47;;;;;;;;;;5009542;28;20026;-77
2021/12/10 10:01:18;;;;;;;6.80;2.28;;;;;;;;;;5005781;28;20441;-74
2021/12/10 10:03:46;;;;;;;5.15;2.20;;;;;;;;;;5006601;28;20033;-76
2021/12/10 10:06:14;;;;;;;6.72;2.38;;;;;;;;;;4996086;28;20026;-76
2021/12/10 10:08:40;;;;;;;6.50;2.78;;;;;;;;;;4995613;28;20478;-76
2021/12/10 10:11:09;;;;;;;7.70;4.00;;;;;;;;;;5000553;28;20046;-76
2021/12/10 10:13:37;;;;;;;8.15;3.45;;;;;;;;;;4985761;28;20041;-75
2021/12/10 10:16:04;;;;;;;8.55;3.35;;;;;;;;;;4992475;28;20045;-75
2021/12/10 10:18:31;;;;;;;7.28;2.83;;;;;;;;;;4981690;28;20041;-76
2021/12/10 10:21:00;;;;;;;8.60;2.78;;;;;;;;;;4976128;28;20034;-76
2021/12/10 10:23:26;;;;;;;6.82;3.25;;;;;;;;;;4971744;28;20023;-78
2021/12/10 10:25:54;;;;;;;6.43;2.83;;;;;;;;;;4973729;28;20030;-77
2021/12/10 10:28:21;;;;;;;5.68;2.63;;;;;;;;;;4973852;28;20035;-76
2021/12/10 10:30:54;;;;;;;7.15;2.30;;;;;;;;;;5006096;28;20041;-75
2021/12/10 10:33:20;;;;;;;11.32;2.78;;;;;;;;;;5007259;28;20365;-77
2021/12/10 10:35:49;;;;;;;6.43;2.30;;;;;;;;;;5000803;28;20065;-76
2021/12/10 10:38:16;;;;;;;8.38;2.33;;;;;;;;;;4989973;28;20511;-77
2021/12/10 10:40:45;;;;;;;4.57;2.75;;;;;;;;;;4976950;28;20031;-77
2021/12/10 10:43:11;;;;;;;6.95;2.38;;;;;;;;;;4992549;28;20064;-77
2021/12/10 10:45:41;;;;;;;9.13;2.60;;;;;;;;;;5004411;28;20034;-77
2021/12/10 10:48:08;;;;;;;5.40;2.67;;;;;;;;;;4999171;28;20086;-76
2021/12/10 10:50:37;;;;;;;7.30;2.03;;;;;;;;;;5007947;28;20042;-77
2021/12/10 10:53:08;;;;;;;4.53;2.17;;;;;;;;;;4995373;28;20593;-76
2021/12/10 10:55:37;;;;;;;3.08;2.28;;;;;;;;;;5003400;28;20085;-76
2021/12/10 10:58:09;;;;;;;7.88;2.42;;;;;;;;;;4984826;28;20038;-76
2021/12/10 11:00:46;;;;;;;4.93;2.10;;;;;;;;;;4973715;28;20030;-77
2021/12/10 11:03:20;;;;;;;4.18;2.58;;;;;;;;;;4985498;28;20030;-75
2021/12/10 11:05:55;;;;;;;7.70;2.58;;;;;;;;;;4994593;28;20473;-75
2021/12/10 11:08:41;;;;;;;6.78;2.67;;;;;;;;;;4986125;28;20457;-76
2021/12/10 11:11:19;;;;;;;4.95;3.42;;;;;;;;;;5010251;28;20041;-76
2021/12/10 11:13:59;;;;;;;5.43;2.20;;;;;;;;;;4996265;28;20093;-76
2021/12/10 11:16:27;;;;;;;6.43;3.30;;;;;;;;;;4998554;28;20026;-76
2021/12/10 11:18:54;;;;;;;3.03;2.22;;;;;;;;;;5012631;28;20034;-74
2021/12/10 11:21:38;;;;;;;7.55;3.50;;;;;;;;;;5020342;28;20026;-75
2021/12/10 11:24:13;;;;;;;4.70;2.42;;;;;;;;;;4987554;28;20033;-76
2021/12/10 11:26:45;;;;;;;6.07;2.63;;;;;;;;;;5008308;28;20034;-75
2021/12/10 11:29:30;;;;;;;5.93;2.58;;;;;;;;;;5006816;28;20030;-75
2021/12/10 11:32:00;;;;;;;5.50;2.40;;;;;;;;;;5011989;28;20038;-75
2021/12/10 11:35:03;;;;;;;6.68;2.40;;;;;;;;;;4997317;28;20077;-76
2021/12/10 11:37:55;;;;;;;5.97;2.38;;;;;;;;;;4971665;28;20035;-76
2021/12/10 11:40:34;;;;;;;8.07;2.40;;;;;;;;;;4995851;28;20030;-74
2021/12/10 11:43:17;;;;;;;6.75;2.42;;;;;;;;;;5012180;28;20030;-75
2021/12/10 11:45:51;;;;;;;9.30;3.22;;;;;;;;;;4988618;28;20026;-74
2021/12/10 11:48:24;;;;;;;6.88;2.80;;;;;;;;;;5000784;28;20027;-72
2021/12/10 11:51:00;;;;;;;6.28;2.63;;;;;;;;;;5008855;28;20073;-73
2021/12/10 11:53:35;;;;;;;;;;;;;;;;;;5010081;28;20030;-74
2021/12/10 11:56:04;;;;;;;8.98;3.38;;;;;;;;;;5011675;28;19937;-73
2021/12/10 11:58:33;;;;;;;7.50;2.53;;;;;;;;;;5004837;28;20035;-73
2021/12/10 12:00:59;;;;;;;6.65;3.10;;;;;;;;;;4989685;28;20041;-73
2021/12/10 12:03:30;;;;;;;5.53;2.50;;;;;;;;;;4990015;28;20023;-74
2021/12/10 12:05:56;;;;;;;5.55;3.25;;;;;;;;;;4990180;28;20022;-73
2021/12/10 12:08:23;;;;;;;7.85;3.00;;;;;;;;;;4990515;28;20118;-73
2021/12/10 12:10:55;;;;;;;9.00;3.72;;;;;;;;;;5025141;28;20029;-74
2021/12/10 12:13:36;;;;;;;9.75;2.70;;;;;;;;;;5016749;28;20049;-75
2021/12/10 12:16:06;;;;;;;7.38;2.80;;;;;;;;;;5011072;28;20619;-74
2021/12/10 12:18:32;;;;;;;8.18;3.05;;;;;;;;;;5013495;28;20088;-74
2021/12/10 12:26:37;;;;;;;7.90;2.67;;;;;;;;;;5026880;28;20056;-75
2021/12/10 12:29:08;;;;;;;6.47;3.33;;;;;;;;;;5007691;28;20049;-74
2021/12/10 12:31:39;;;;;;;5.90;2.97;;;;;;;;;;5017247;28;20366;-72
2021/12/10 12:34:08;;;;;;;5.30;2.53;;;;;;;;;;5012161;28;20428;-73
2021/12/10 12:36:41;;;;;;;7.95;3.47;;;;;;;;;;5012621;28;20050;-72
2021/12/10 12:39:15;;;;;;;7.45;2.78;;;;;;;;;;5010765;28;20034;-74
2021/12/10 12:41:46;;;;;;;7.35;3.20;;;;;;;;;;5009425;28;20027;-76
2021/12/10 12:44:26;;;;;;;7.18;3.30;;;;;;;;;;5001978;28;20057;-74
2021/12/10 12:46:56;;;;;;;8.85;2.90;;;;;;;;;;5001438;28;20034;-75
2021/12/10 12:49:22;;;;;;;5.82;2.75;;;;;;;;;;5008210;28;20033;-75
2021/12/10 12:52:15;;;;;;;4.75;3.10;;;;;;;;;;4997188;28;20030;-75
2021/12/10 12:55:00;;;;;;;9.23;4.30;;;;;;;;;;5001942;28;20034;-74
2021/12/10 12:57:42;;;;;;;8.70;3.60;;;;;;;;;;5020217;28;20034;-76
2021/12/10 13:00:28;;;;;;;6.88;2.78;;;;;;;;;;4987954;28;20036;-75
2021/12/10 13:02:56;;;;;;;7.43;3.60;;;;;;;;;;5001028;28;20384;-74
2021/12/10 13:05:41;;;;;;;10.73;6.68;;;;;;;;;;4996564;28;20098;-76
2021/12/10 13:08:09;;;;;;;8.70;3.83;;;;;;;;;;5010646;28;20153;-76
2021/12/10 13:10:39;;;;;;;10.05;5.18;;;;;;;;;;4996928;28;20053;-78
2021/12/10 13:13:15;;;;;;;8.52;5.22;;;;;;;;;;5016104;28;20040;-76
2021/12/10 13:15:49;;;;;;;14.05;9.20;;;;;;;;;;4991596;28;20029;-75
2021/12/10 13:18:15;;;;;;;7.85;5.05;;;;;;;;;;4995793;28;20033;-75
2021/12/10 13:20:51;;;;;;;6.75;4.72;;;;;;;;;;4997143;28;20141;-78
2021/12/10 13:23:19;;;;;;;9.85;5.70;;;;;;;;;;5005134;28;20125;-75
2021/12/10 13:25:45;;;;;;;9.88;5.30;;;;;;;;;;5001150;28;20109;-77
2021/12/10 13:28:11;;;;;;;6.40;3.10;;;;;;;;;;4999742;28;20018;-75
2021/12/10 13:30:45;;;;;;;9.98;4.40;;;;;;;;;;5000434;28;20061;-75
2021/12/10 13:33:12;;;;;;;6.45;3.30;;;;;;;;;;4990234;28;20025;-76
2021/12/10 13:35:38;;;;;;;13.30;6.32;;;;;;;;;;4999208;28;20040;-76
2021/12/10 13:38:06;;;;;;;18.50;6.50;;;;;;;;;;4997295;28;20065;-73
2021/12/10 13:40:35;;;;;;;6.32;3.00;;;;;;;;;;5013579;28;20123;-79
2021/12/10 13:43:03;;;;;;;7.10;3.70;;;;;;;;;;5016289;28;20022;-73
2021/12/10 13:45:31;;;;;;;10.32;4.53;;;;;;;;;;5016957;28;20026;-72
2021/12/10 13:48:08;;;;;;;7.05;3.80;;;;;;;;;;5005217;28;20030;-73
2021/12/10 13:50:36;;;;;;;8.10;4.65;;;;;;;;;;5013198;28;20157;-74
2021/12/10 13:53:05;;;;;;;7.88;3.88;;;;;;;;;;5003232;28;20034;-77
2021/12/10 13:55:41;;;;;;;9.40;3.50;;;;;;;;;;4996774;28;20483;-76
2021/12/10 13:58:12;;;;;;;10.18;3.88;;;;;;;;;;4999180;28;20030;-78
2021/12/10 14:00:41;;;;;;;7.35;3.13;;;;;;;;;;4995941;28;20500;-77
2021/12/10 14:03:08;;;;;;;11.40;3.38;;;;;;;;;;4991567;28;20034;-76
2021/12/10 14:05:36;;;;;;;10.02;3.10;;;;;;;;;;4983010;28;20520;-77
2021/12/10 14:08:09;;;;;;;8.10;4.95;;;;;;;;;;4993846;28;20034;-77
2021/12/10 14:10:37;;;;;;;8.68;3.33;;;;;;;;;;5008715;28;20391;-76
2021/12/10 14:13:05;;;;;;;9.05;3.70;;;;;;;;;;4990869;28;20053;-75
2021/12/10 14:18:39;;;;;;;8.02;3.58;;;;;;;;;;4994111;28;20119;-75
2021/12/10 14:21:07;;;;;;;9.13;6.43;;;;;;;;;;4987440;28;20034;-77
2021/12/10 14:23:40;;;;;;;14.98;6.07;;;;;;;;;;4997226;28;20030;-74
2021/12/10 14:26:14;;;;;;;20.63;9.25;;;;;;;;;;4993836;28;20041;-76
2021/12/10 14:28:41;;;;;;;20.90;9.00;;;;;;;;;;5002072;28;20034;-75
2021/12/10 14:31:10;;;;;;;15.38;5.70;;;;;;;;;;4998501;28;20030;-75
2021/12/10 14:33:40;;;;;;;29.52;12.82;;;;;;;;;;5009700;28;20029;-74
2021/12/10 14:36:17;;;;;;;11.73;5.75;;;;;;;;;;5003558;28;20062;-75
2021/12/10 14:38:50;;;;;;;12.55;5.28;;;;;;;;;;5008026;28;20037;-77
2021/12/10 14:41:19;;;;;;;9.45;4.07;;;;;;;;;;5006420;28;20104;-75
2021/12/10 14:43:49;;;;;;;9.38;3.83;;;;;;;;;;4999164;28;20088;-77
2021/12/10 14:46:19;;;;;;;7.55;3.83;;;;;;;;;;5015678;28;20392;-75
2021/12/10 14:49:04;;;;;;;4.63;2.72;;;;;;;;;;5004517;28;20025;-76
2021/12/10 14:51:30;;;;;;;7.70;3.30;;;;;;;;;;4989390;28;20048;-77
2021/12/10 14:54:17;;;;;;;13.23;3.50;;;;;;;;;;4986135;28;20034;-74
2021/12/10 14:56:51;;;;;;;15.52;5.97;;;;;;;;;;4993065;28;20093;-77
2021/12/10 14:59:20;;;;;;;8.85;3.08;;;;;;;;;;4996511;28;20053;-77
2021/12/10 15:02:06;;;;;;;7.05;2.85;;;;;;;;;;5002436;28;20140;-78
2021/12/10 15:04:38;;;;;;;12.77;5.35;;;;;;;;;;4989662;28;20133;-79
2021/12/10 15:07:07;;;;;;;10.43;4.22;;;;;;;;;;5009688;28;20025;-77
2021/12/10 15:09:54;;;;;;;13.95;4.50;;;;;;;;;;4998090;28;20039;-76